Time;durP1;ratioP1;P1;durP2;ratioP2;P2;SDS_P1;SDS_P2;PMS_P1;PMS_P2;Temp;Humidity;BMP_temperature;BMP_pressure;BME280_temperature;BME280_humidity;BME280_pressure;Samples;Min_cycle;Max_cycle;Signal;HPM_P1;HPM_P2
2023/12/10 00:01:45;;;;;;;;;;;;;;;;;;5049405;28;4923;-64
2023/12/10 00:04:11;;;;;;;;;;;;;;;;;;5052196;28;3311;-62
2023/12/10 00:06:36;;;;;;;;;;;;;;;;;;5051827;28;5076;-64
2023/12/10 00:09:02;;;;;;;;;;;;;;;;;;5053731;28;4448;-62
2023/12/10 00:11:27;;;;;;;;;;;;;;;;;;5058977;28;5302;-64
2023/12/10 00:13:53;;;;;;;;;;;;;;;;;;5062717;28;5048;-62
2023/12/10 00:16:18;;;;;;;;;;;;;;;;;;5052335;28;5030;-68
2023/12/10 00:18:44;;;;;;;;;;;;;;;;;;5050333;28;1914;-64
2023/12/10 00:21:12;;;;;;;;;;;;;;;;;;5057735;28;5077;-63
2023/12/10 00:23:37;;;;;;;;;;;;;;;;;;5061606;28;5024;-62
2023/12/10 00:26:02;;;;;;;;;;;;;;;;;;5062711;28;5180;-62
2023/12/10 00:28:28;;;;;;;;;;;;;;;;;;5046193;28;5172;-64
2023/12/10 00:30:53;;;;;;;;;;;;;;;;;;5056710;28;3434;-63
2023/12/10 00:33:19;;;;;;;;;;;;;;;;;;5055828;28;4484;-63
2023/12/10 00:35:44;;;;;;;;;;;;;;;;;;5057647;28;5988;-62
2023/12/10 00:38:10;;;;;;;;;;;;;;;;;;5060543;28;5066;-62
2023/12/10 00:40:35;;;;;;;;;;;;;;;;;;5051693;28;4982;-63
2023/12/10 00:43:00;;;;;;;;;;;;;;;;;;5059706;28;994;-63
2023/12/10 00:45:25;;;;;;;;;;;;;;;;;;5047716;28;4817;-62
2023/12/10 00:47:51;;;;;;;;;;;;;;;;;;5055238;28;5024;-74
2023/12/10 00:50:16;;;;;;;;;;;;;;;;;;5062370;28;6049;-69
2023/12/10 00:52:41;;;;;;;;;;;;;;;;;;5060968;28;5447;-74
2023/12/10 00:55:07;;;;;;;;;;;;;;;;;;5057633;28;3399;-70
2023/12/10 00:57:34;;;;;;;;;;;;;;;;;;5074466;28;5052;-71
2023/12/10 00:59:59;;;;;;;;;;;;;;;;;;5055614;28;5024;-72
2023/12/10 01:02:25;;;;;;;;;;;;;;;;;;5047331;28;5093;-68
2023/12/10 01:04:51;;;;;;;;;;;;;;;;;;5050819;28;4996;-61
2023/12/10 01:07:17;;;;;;;;;;;;;;;;;;5048726;28;5048;-59
2023/12/10 01:09:42;;;;;;;;;;;;;;;;;;5052917;28;3357;-59
2023/12/10 01:12:07;;;;;;;;;;;;;;;;;;5049130;28;5309;-59
2023/12/10 01:14:33;;;;;;;;;;;;;;;;;;5050147;28;4541;-59
2023/12/10 01:16:59;;;;;;;;;;;;;;;;;;5049583;28;4965;-58
2023/12/10 01:19:24;;;;;;;;;;;;;;;;;;5063666;28;4542;-59
2023/12/10 01:21:49;;;;;;;;;;;;;;;;;;5049214;28;3329;-59
2023/12/10 01:24:18;;;;;;;;;;;;;;;;;;5055416;28;5072;-59
2023/12/10 01:26:43;;;;;;;;;;;;;;;;;;5055581;28;4476;-59
2023/12/10 01:29:09;;;;;;;;;;;;;;;;;;5049110;28;5060;-59
2023/12/10 01:31:35;;;;;;;;;;;;;;;;;;5063087;28;4535;-60
2023/12/10 01:34:00;;;;;;;;;;;;;;;;;;5062962;28;3328;-60
2023/12/10 01:36:26;;;;;;;;;;;;;;;;;;5049828;28;5085;-60
2023/12/10 01:38:52;;;;;;;;;;;;;;;;;;5062227;28;4778;-60
2023/12/10 01:41:18;;;;;;;;;;;;;;;;;;5059989;28;4948;-60
2023/12/10 01:43:43;;;;;;;;;;;;;;;;;;5083207;28;4834;-61
2023/12/10 01:46:09;;;;;;;;;;;;;;;;;;5054524;28;3379;-60
2023/12/10 01:48:34;;;;;;;;;;;;;;;;;;5057645;28;4550;-60
2023/12/10 01:50:59;;;;;;;;;;;;;;;;;;5065259;28;4507;-60
2023/12/10 01:53:25;;;;;;;;;;;;;;;;;;5061378;28;5417;-60
2023/12/10 01:55:50;;;;;;;;;;;;;;;;;;5055885;28;4957;-60
2023/12/10 01:58:15;;;;;;;;;;;;;;;;;;5052868;28;5157;-60
2023/12/10 02:00:40;;;;;;;;;;;;;;;;;;5050553;28;3347;-60
2023/12/10 02:03:06;;;;;;;;;;;;;;;;;;5059736;28;4592;-60
2023/12/10 02:05:31;;;;;;;;;;;;;;;;;;5062356;28;5085;-60
2023/12/10 02:07:56;;;;;;;;;;;;;;;;;;5050063;28;5212;-60
2023/12/10 02:10:22;;;;;;;;;;;;;;;;;;5060225;28;5006;-60
2023/12/10 02:12:47;;;;;;;;;;;;;;;;;;5054337;28;1096;-60
2023/12/10 02:15:16;;;;;;;;;;;;;;;;;;5045725;28;4683;-61
2023/12/10 02:17:41;;;;;;;;;;;;;;;;;;5092671;28;5200;-60
2023/12/10 02:20:08;;;;;;;;;;;;;;;;;;5054839;28;5025;-60
2023/12/10 02:22:33;;;;;;;;;;;;;;;;;;5052359;28;5146;-59
2023/12/10 02:24:59;;;;;;;;;;;;;;;;;;5063249;28;3433;-60
2023/12/10 02:27:24;;;;;;;;;;;;;;;;;;5093559;28;5016;-60
2023/12/10 02:29:50;;;;;;;;;;;;;;;;;;5055605;28;4850;-59
2023/12/10 02:32:16;;;;;;;;;;;;;;;;;;5094683;28;4487;-58
2023/12/10 02:34:41;;;;;;;;;;;;;;;;;;5063910;28;4898;-60
2023/12/10 02:37:07;;;;;;;;;;;;;;;;;;5068248;28;1976;-59
2023/12/10 02:39:32;;;;;;;;;;;;;;;;;;5055951;28;4416;-59
2023/12/10 02:41:57;;;;;;;;;;;;;;;;;;5057297;28;5002;-59
2023/12/10 02:44:23;;;;;;;;;;;;;;;;;;5049963;28;4507;-59
2023/12/10 02:46:48;;;;;;;;;;;;;;;;;;5056154;28;4532;-58
2023/12/10 02:49:13;;;;;;;;;;;;;;;;;;5058235;28;5222;-58
2023/12/10 02:51:39;;;;;;;;;;;;;;;;;;5056470;28;5023;-60
2023/12/10 02:54:04;;;;;;;;;;;;;;;;;;5054618;28;5096;-60
2023/12/10 02:56:29;;;;;;;;;;;;;;;;;;5056242;28;5172;-59
2023/12/10 02:58:55;;;;;;;;;;;;;;;;;;5055444;28;5001;-60
2023/12/10 03:01:20;;;;;;;;;;;;;;;;;;5053461;28;5031;-60
2023/12/10 03:03:45;;;;;;;;;;;;;;;;;;5054911;28;3320;-60
2023/12/10 03:06:10;;;;;;;;;;;;;;;;;;5059027;28;4693;-60
2023/12/10 03:08:36;;;;;;;;;;;;;;;;;;5053767;28;5158;-60
2023/12/10 03:11:01;;;;;;;;;;;;;;;;;;5057978;28;5006;-60
2023/12/10 03:13:26;;;;;;;;;;;;;;;;;;5059963;28;5201;-61
2023/12/10 03:15:52;;;;;;;;;;;;;;;;;;5058647;28;3830;-60
2023/12/10 03:18:17;;;;;;;;;;;;;;;;;;5059112;28;4507;-61
2023/12/10 03:20:42;;;;;;;;;;;;;;;;;;5063898;28;5234;-61
2023/12/10 03:23:07;;;;;;;;;;;;;;;;;;5047223;28;4975;-61
2023/12/10 03:25:33;;;;;;;;;;;;;;;;;;5058414;28;5074;-60
2023/12/10 03:27:58;;;;;;;;;;;;;;;;;;5064008;28;1250;-58
2023/12/10 03:30:23;;;;;;;;;;;;;;;;;;5050141;28;5316;-58
2023/12/10 03:32:49;;;;;;;;;;;;;;;;;;5053683;28;4679;-58
2023/12/10 03:35:14;;;;;;;;;;;;;;;;;;5047636;28;4775;-59
2023/12/10 03:37:39;;;;;;;;;;;;;;;;;;5055482;28;4916;-59
2023/12/10 03:40:05;;;;;;;;;;;;;;;;;;5052030;28;3269;-59
2023/12/10 03:42:30;;;;;;;;;;;;;;;;;;5057795;28;4513;-60
2023/12/10 03:44:55;;;;;;;;;;;;;;;;;;5054259;28;5051;-60
2023/12/10 03:47:21;;;;;;;;;;;;;;;;;;5051005;28;5265;-59
2023/12/10 03:49:46;;;;;;;;;;;;;;;;;;5055966;28;5177;-60
2023/12/10 03:52:11;;;;;;;;;;;;;;;;;;5092312;28;5056;-59
2023/12/10 03:54:37;;;;;;;;;;;;;;;;;;5057807;28;4887;-60
2023/12/10 03:57:02;;;;;;;;;;;;;;;;;;5055533;28;5362;-60
2023/12/10 03:59:27;;;;;;;;;;;;;;;;;;5052727;28;4744;-60
2023/12/10 04:01:53;;;;;;;;;;;;;;;;;;5060568;28;5195;-60
2023/12/10 04:04:18;;;;;;;;;;;;;;;;;;5055533;28;5321;-61
2023/12/10 04:06:43;;;;;;;;;;;;;;;;;;5050762;28;3474;-60
2023/12/10 04:09:09;;;;;;;;;;;;;;;;;;5051702;28;5066;-60
2023/12/10 04:11:35;;;;;;;;;;;;;;;;;;5057357;28;5162;-60
2023/12/10 04:14:00;;;;;;;;;;;;;;;;;;5057766;28;4528;-60
2023/12/10 04:16:26;;;;;;;;;;;;;;;;;;5049942;28;5056;-59
2023/12/10 04:18:51;;;;;;;;;;;;;;;;;;5048006;28;3313;-60
2023/12/10 04:21:20;;;;;;;;;;;;;;;;;;5049341;28;5861;-59
2023/12/10 04:23:45;;;;;;;;;;;;;;;;;;5049866;28;4544;-59
2023/12/10 04:26:10;;;;;;;;;;;;;;;;;;5058077;28;4513;-59
2023/12/10 04:28:37;;;;;;;;;;;;;;;;;;5057018;28;5260;-59
2023/12/10 04:31:03;;;;;;;;;;;;;;;;;;5056001;28;3452;-59
2023/12/10 04:33:28;;;;;;;;;;;;;;;;;;5048102;28;5004;-59
2023/12/10 04:35:53;;;;;;;;;;;;;;;;;;5053099;28;5131;-60
2023/12/10 04:38:19;;;;;;;;;;;;;;;;;;5058159;28;5054;-60
2023/12/10 04:40:44;;;;;;;;;;;;;;;;;;5057236;28;4634;-59
2023/12/10 04:43:09;;;;;;;;;;;;;;;;;;5054056;28;3346;-59
2023/12/10 04:45:35;;;;;;;;;;;;;;;;;;5047641;28;4405;-59
2023/12/10 04:48:01;;;;;;;;;;;;;;;;;;5058416;28;4453;-59
2023/12/10 04:50:26;;;;;;;;;;;;;;;;;;5063602;28;5104;-61
2023/12/10 04:52:52;;;;;;;;;;;;;;;;;;5064912;28;5225;-60
2023/12/10 04:55:17;;;;;;;;;;;;;;;;;;5066023;28;4883;-61
2023/12/10 04:57:42;;;;;;;;;;;;;;;;;;5061519;28;2329;-59
2023/12/10 05:00:08;;;;;;;;;;;;;;;;;;5053089;28;5265;-58
2023/12/10 05:02:33;;;;;;;;;;;;;;;;;;5059245;28;5118;-59
2023/12/10 05:04:59;;;;;;;;;;;;;;;;;;5064028;28;4627;-59
2023/12/10 05:07:24;;;;;;;;;;;;;;;;;;5058874;28;5117;-59
2023/12/10 05:09:49;;;;;;;;;;;;;;;;;;5063541;28;3273;-59
2023/12/10 05:12:15;;;;;;;;;;;;;;;;;;5058423;28;5072;-59
2023/12/10 05:14:40;;;;;;;;;;;;;;;;;;5052023;28;4504;-59
2023/12/10 05:17:06;;;;;;;;;;;;;;;;;;5061395;28;4505;-59
2023/12/10 05:19:31;;;;;;;;;;;;;;;;;;5063457;28;4562;-59
2023/12/10 05:21:56;;;;;;;;;;;;;;;;;;5057679;28;3429;-59
2023/12/10 05:24:22;;;;;;;;;;;;;;;;;;5058798;28;5113;-59
2023/12/10 05:26:47;;;;;;;;;;;;;;;;;;5056726;28;5290;-60
2023/12/10 05:29:12;;;;;;;;;;;;;;;;;;5054209;28;5090;-59
2023/12/10 05:31:37;;;;;;;;;;;;;;;;;;5064174;28;5148;-59
2023/12/10 05:34:03;;;;;;;;;;;;;;;;;;5058927;28;3354;-59
2023/12/10 05:36:28;;;;;;;;;;;;;;;;;;5065217;28;4757;-59
2023/12/10 05:38:53;;;;;;;;;;;;;;;;;;5067788;28;4750;-59
2023/12/10 05:41:19;;;;;;;;;;;;;;;;;;5056194;28;4667;-60
2023/12/10 05:43:44;;;;;;;;;;;;;;;;;;5053437;28;4564;-59
2023/12/10 05:46:09;;;;;;;;;;;;;;;;;;5056280;28;3471;-59
2023/12/10 05:48:35;;;;;;;;;;;;;;;;;;5064207;28;5010;-58
2023/12/10 05:51:01;;;;;;;;;;;;;;;;;;5062850;28;4587;-58
2023/12/10 05:53:26;;;;;;;;;;;;;;;;;;5061842;28;5160;-59
2023/12/10 05:55:52;;;;;;;;;;;;;;;;;;5057633;28;5039;-59
2023/12/10 05:58:17;;;;;;;;;;;;;;;;;;5056990;28;5145;-60
2023/12/10 06:00:42;;;;;;;;;;;;;;;;;;5068506;28;3816;-59
2023/12/10 06:03:08;;;;;;;;;;;;;;;;;;5064018;28;4617;-60
2023/12/10 06:05:33;;;;;;;;;;;;;;;;;;5057014;28;5122;-60
2023/12/10 06:07:58;;;;;;;;;;;;;;;;;;5067460;28;5116;-60
2023/12/10 06:10:23;;;;;;;;;;;;;;;;;;5059241;28;4489;-60
2023/12/10 06:12:50;;;;;;;;;;;;;;;;;;5063192;28;3309;-60
2023/12/10 06:15:15;;;;;;;;;;;;;;;;;;5062491;28;4450;-60
2023/12/10 06:17:40;;;;;;;;;;;;;;;;;;5059217;28;4463;-60
2023/12/10 06:20:08;;;;;;;;;;;;;;;;;;5063316;28;5038;-59
2023/12/10 06:22:33;;;;;;;;;;;;;;;;;;5058419;28;4989;-60
2023/12/10 06:24:58;;;;;;;;;;;;;;;;;;5050582;28;3249;-60
2023/12/10 06:27:24;;;;;;;;;;;;;;;;;;5062807;28;5035;-59
2023/12/10 06:29:49;;;;;;;;;;;;;;;;;;5060545;28;5089;-60
2023/12/10 06:32:15;;;;;;;;;;;;;;;;;;5062301;28;5489;-59
2023/12/10 06:34:40;;;;;;;;;;;;;;;;;;5060289;28;4534;-60
2023/12/10 06:37:06;;;;;;;;;;;;;;;;;;5058390;28;3300;-59
2023/12/10 06:39:31;;;;;;;;;;;;;;;;;;5050296;28;4622;-59
2023/12/10 06:41:56;;;;;;;;;;;;;;;;;;5052795;28;5068;-59
2023/12/10 06:44:22;;;;;;;;;;;;;;;;;;5059614;28;5004;-59
2023/12/10 06:46:51;;;;;;;;;;;;;;;;;;5050881;28;5062;-60
2023/12/10 06:49:16;;;;;;;;;;;;;;;;;;5062398;28;5086;-59
2023/12/10 06:51:42;;;;;;;;;;;;;;;;;;5052306;28;4914;-59
2023/12/10 06:54:09;;;;;;;;;;;;;;;;;;5053660;28;5128;-59
2023/12/10 06:56:39;;;;;;;;;;;;;;;;;;5052260;28;4586;-60
2023/12/10 06:59:04;;;;;;;;;;;;;;;;;;5048100;28;5012;-60
2023/12/10 07:01:30;;;;;;;;;;;;;;;;;;5049956;28;4519;-59
2023/12/10 07:03:55;;;;;;;;;;;;;;;;;;5060173;28;3299;-60
2023/12/10 07:06:21;;;;;;;;;;;;;;;;;;5051606;28;5025;-59
2023/12/10 07:08:46;;;;;;;;;;;;;;;;;;5051047;28;5021;-59
2023/12/10 07:11:12;;;;;;;;;;;;;;;;;;5054160;28;5156;-59
2023/12/10 07:13:37;;;;;;;;;;;;;;;;;;5057468;28;5224;-61
2023/12/10 07:16:03;;;;;;;;;;;;;;;;;;5057864;28;3355;-59
2023/12/10 07:18:28;;;;;;;;;;;;;;;;;;5051257;28;5109;-59
2023/12/10 07:20:53;;;;;;;;;;;;;;;;;;5048899;28;5006;-60
2023/12/10 07:23:18;;;;;;;;;;;;;;;;;;5056051;28;4478;-59
2023/12/10 07:25:44;;;;;;;;;;;;;;;;;;5059662;28;5085;-59
2023/12/10 07:28:09;;;;;;;;;;;;;;;;;;5063190;28;3320;-59
2023/12/10 07:30:34;;;;;;;;;;;;;;;;;;5053935;28;4617;-60
2023/12/10 07:33:00;;;;;;;;;;;;;;;;;;5059271;28;4602;-60
2023/12/10 07:35:25;;;;;;;;;;;;;;;;;;5049539;28;4589;-59
2023/12/10 07:37:51;;;;;;;;;;;;;;;;;;5065911;28;5051;-60
2023/12/10 07:40:16;;;;;;;;;;;;;;;;;;5065785;28;4719;-59
2023/12/10 07:42:42;;;;;;;;;;;;;;;;;;5058969;28;3662;-59
2023/12/10 07:45:07;;;;;;;;;;;;;;;;;;5061968;28;5016;-59
2023/12/10 07:47:32;;;;;;;;;;;;;;;;;;5053295;28;5062;-60
2023/12/10 07:49:58;;;;;;;;;;;;;;;;;;5054606;28;4681;-60
2023/12/10 07:52:23;;;;;;;;;;;;;;;;;;5057520;28;5255;-59
2023/12/10 07:54:48;;;;;;;;;;;;;;;;;;5060512;28;3310;-59
2023/12/10 07:57:13;;;;;;;;;;;;;;;;;;5053854;28;4529;-59
2023/12/10 07:59:39;;;;;;;;;;;;;;;;;;5058940;28;5041;-58
2023/12/10 08:02:04;;;;;;;;;;;;;;;;;;5059111;28;5116;-59
2023/12/10 08:04:30;;;;;;;;;;;;;;;;;;5054770;28;5122;-60
2023/12/10 08:06:55;;;;;;;;;;;;;;;;;;5058137;28;3303;-59
2023/12/10 08:09:21;;;;;;;;;;;;;;;;;;5061177;28;5172;-59
2023/12/10 08:11:47;;;;;;;;;;;;;;;;;;5055103;28;5010;-60
2023/12/10 08:14:12;;;;;;;;;;;;;;;;;;5053249;28;5122;-59
2023/12/10 08:16:37;;;;;;;;;;;;;;;;;;5052077;28;5734;-60
2023/12/10 08:19:02;;;;;;;;;;;;;;;;;;5064701;28;3291;-58
2023/12/10 08:21:28;;;;;;;;;;;;;;;;;;5052333;28;5017;-60
2023/12/10 08:23:53;;;;;;;;;;;;;;;;;;5055360;28;5039;-60
2023/12/10 08:26:18;;;;;;;;;;;;;;;;;;5054168;28;5074;-60
2023/12/10 08:28:44;;;;;;;;;;;;;;;;;;5049673;28;4991;-58
2023/12/10 08:31:09;;;;;;;;;;;;;;;;;;5054260;28;3615;-58
2023/12/10 08:33:35;;;;;;;;;;;;;;;;;;5057002;28;4545;-59
2023/12/10 08:36:00;;;;;;;;;;;;;;;;;;5056092;28;4779;-59
2023/12/10 08:38:25;;;;;;;;;;;;;;;;;;5051924;28;5453;-60
2023/12/10 08:40:51;;;;;;;;;;;;;;;;;;5062598;28;4637;-60
2023/12/10 08:43:17;;;;;;;;;;;;;;;;;;5057864;28;4721;-59
2023/12/10 08:45:42;;;;;;;;;;;;;;;;;;5050708;28;3707;-59
2023/12/10 08:48:08;;;;;;;;;;;;;;;;;;5053747;28;5022;-59
2023/12/10 08:50:34;;;;;;;;;;;;;;;;;;5054564;28;4893;-59
2023/12/10 08:53:00;;;;;;;;;;;;;;;;;;5047969;28;5171;-60
2023/12/10 08:55:25;;;;;;;;;;;;;;;;;;5052824;28;5051;-59
2023/12/10 08:57:50;;;;;;;;;;;;;;;;;;5052103;28;3305;-59
2023/12/10 09:00:16;;;;;;;;;;;;;;;;;;5056090;28;4823;-59
2023/12/10 09:02:41;;;;;;;;;;;;;;;;;;5060885;28;5007;-59
2023/12/10 09:05:07;;;;;;;;;;;;;;;;;;5054779;28;4483;-60
2023/12/10 09:07:32;;;;;;;;;;;;;;;;;;5061178;28;4723;-59
2023/12/10 09:09:59;;;;;;;;;;;;;;;;;;5054165;28;3308;-59
2023/12/10 09:12:27;;;;;;;;;;;;;;;;;;5048532;28;5062;-60
2023/12/10 09:14:53;;;;;;;;;;;;;;;;;;5056238;28;5003;-59
2023/12/10 09:17:19;;;;;;;;;;;;;;;;;;5056501;28;4746;-60
2023/12/10 09:19:44;;;;;;;;;;;;;;;;;;5055936;28;5051;-60
2023/12/10 09:22:09;;;;;;;;;;;;;;;;;;5057502;28;3253;-59
2023/12/10 09:24:35;;;;;;;;;;;;;;;;;;5052660;28;4453;-59
2023/12/10 09:27:00;;;;;;;;;;;;;;;;;;5056765;28;5389;-59
2023/12/10 09:29:25;;;;;;;;;;;;;;;;;;5066491;28;5173;-59
2023/12/10 09:31:51;;;;;;;;;;;;;;;;;;5051607;28;5168;-62
2023/12/10 09:34:16;;;;;;;;;;;;;;;;;;5055292;28;5184;-62
2023/12/10 09:36:41;;;;;;;;;;;;;;;;;;5065655;28;3107;-62
2023/12/10 09:39:07;;;;;;;;;;;;;;;;;;5060668;28;5033;-63
2023/12/10 09:41:32;;;;;;;;;;;;;;;;;;5053461;28;5117;-63
2023/12/10 09:43:58;;;;;;;;;;;;;;;;;;5052616;28;4524;-62
2023/12/10 09:46:23;;;;;;;;;;;;;;;;;;5063048;28;4999;-62
2023/12/10 09:48:49;;;;;;;;;;;;;;;;;;5066074;28;3598;-63
2023/12/10 09:51:14;;;;;;;;;;;;;;;;;;5061350;28;4725;-62
2023/12/10 09:53:39;;;;;;;;;;;;;;;;;;5061401;28;5726;-65
2023/12/10 09:56:05;;;;;;;;;;;;;;;;;;5054368;28;5108;-65
2023/12/10 09:58:30;;;;;;;;;;;;;;;;;;5055122;28;5169;-64
2023/12/10 10:00:56;;;;;;;;;;;;;;;;;;5054383;28;3632;-65
2023/12/10 10:03:21;;;;;;;;;;;;;;;;;;5055603;28;5109;-64
2023/12/10 10:05:46;;;;;;;;;;;;;;;;;;5064861;28;4910;-64
2023/12/10 10:08:12;;;;;;;;;;;;;;;;;;5053839;28;5172;-65
2023/12/10 10:10:37;;;;;;;;;;;;;;;;;;5054822;28;5034;-64
2023/12/10 10:13:05;;;;;;;;;;;;;;;;;;5070900;28;3306;-60
2023/12/10 10:15:31;;;;;;;;;;;;;;;;;;5053177;28;4915;-65
2023/12/10 10:17:56;;;;;;;;;;;;;;;;;;5057948;28;5070;-64
2023/12/10 10:20:22;;;;;;;;;;;;;;;;;;5057859;28;4801;-63
2023/12/10 10:22:48;;;;;;;;;;;;;;;;;;5060202;28;5106;-66
2023/12/10 10:25:13;;;;;;;;;;;;;;;;;;5062230;28;5039;-64
2023/12/10 10:27:39;;;;;;;;;;;;;;;;;;5052755;28;3237;-63
2023/12/10 10:30:04;;;;;;;;;;;;;;;;;;5050482;28;5176;-62
2023/12/10 10:32:30;;;;;;;;;;;;;;;;;;5063900;28;5204;-61
2023/12/10 10:34:55;;;;;;;;;;;;;;;;;;5057528;28;4616;-63
2023/12/10 10:37:20;;;;;;;;;;;;;;;;;;5053084;28;5110;-61
2023/12/10 10:39:48;;;;;;;;;;;;;;;;;;5060369;28;3555;-63
2023/12/10 10:42:13;;;;;;;;;;;;;;;;;;5051232;28;4912;-60
2023/12/10 10:44:39;;;;;;;;;;;;;;;;;;5051677;28;4740;-63
2023/12/10 10:47:04;;;;;;;;;;;;;;;;;;5056114;28;4772;-63
2023/12/10 10:49:30;;;;;;;;;;;;;;;;;;5055648;28;5259;-63
2023/12/10 10:51:56;;;;;;;;;;;;;;;;;;5054182;28;5136;-62
2023/12/10 10:54:21;;;;;;;;;;;;;;;;;;5053587;28;5536;-62
2023/12/10 10:56:47;;;;;;;;;;;;;;;;;;5083889;28;5111;-65
2023/12/10 10:59:31;;;;;;;;;;;;;;;;;;5057319;28;5088;-62
2023/12/10 11:02:00;;;;;;;;;;;;;;;;;;5055813;28;5017;-61
2023/12/10 11:04:32;;;;;;;;;;;;;;;;;;5055944;28;5045;-62
2023/12/10 11:06:57;;;;;;;;;;;;;;;;;;5057350;28;3391;-60
2023/12/10 11:09:25;;;;;;;;;;;;;;;;;;5061885;28;6129;-59
2023/12/10 11:11:50;;;;;;;;;;;;;;;;;;5049138;28;5173;-68
2023/12/10 11:14:22;;;;;;;;;;;;;;;;;;5059241;28;4489;-65
2023/12/10 11:16:58;;;;;;;;;;;;;;;;;;5055601;28;4931;-62
2023/12/10 11:19:23;;;;;;;;;;;;;;;;;;5056667;28;4577;-64
2023/12/10 11:21:49;;;;;;;;;;;;;;;;;;5055597;28;3514;-62
2023/12/10 11:24:15;;;;;;;;;;;;;;;;;;5061726;28;4904;-63
2023/12/10 11:26:40;;;;;;;;;;;;;;;;;;5066427;28;4519;-61
2023/12/10 11:29:06;;;;;;;;;;;;;;;;;;5056737;28;5028;-62
2023/12/10 11:31:32;;;;;;;;;;;;;;;;;;5052640;28;5019;-64
2023/12/10 11:33:58;;;;;;;;;;;;;;;;;;5041902;28;3479;-67
2023/12/10 11:36:23;;;;;;;;;;;;;;;;;;5052647;28;4452;-68
2023/12/10 11:38:49;;;;;;;;;;;;;;;;;;5055130;28;5882;-70
2023/12/10 11:41:16;;;;;;;;;;;;;;;;;;5059201;28;5127;-68
2023/12/10 11:43:45;;;;;;;;;;;;;;;;;;5065114;28;4540;-67
2023/12/10 11:46:17;;;;;;;;;;;;;;;;;;5052464;28;3402;-65
2023/12/10 11:48:42;;;;;;;;;;;;;;;;;;5052125;28;5337;-63
2023/12/10 11:51:07;;;;;;;;;;;;;;;;;;5057743;28;5151;-64
2023/12/10 11:53:33;;;;;;;;;;;;;;;;;;5054633;28;5143;-63
2023/12/10 11:55:59;;;;;;;;;;;;;;;;;;5089367;28;4992;-62
2023/12/10 11:58:27;;;;;;;;;;;;;;;;;;5060879;28;4532;-65
2023/12/10 12:00:58;;;;;;;;;;;;;;;;;;5064708;28;1215;-62
2023/12/10 12:03:24;;;;;;;;;;;;;;;;;;5063445;28;5009;-62
2023/12/10 12:05:52;;;;;;;;;;;;;;;;;;5055496;28;4713;-62
2023/12/10 12:08:18;;;;;;;;;;;;;;;;;;5085789;28;5061;-64
2023/12/10 12:10:43;;;;;;;;;;;;;;;;;;5054824;28;5001;-63
2023/12/10 12:13:09;;;;;;;;;;;;;;;;;;5058112;28;3229;-63
2023/12/10 12:15:34;;;;;;;;;;;;;;;;;;5053405;28;5093;-63
2023/12/10 12:17:59;;;;;;;;;;;;;;;;;;5052037;28;4718;-63
2023/12/10 12:20:26;;;;;;;;;;;;;;;;;;5072997;28;5100;-63
2023/12/10 12:22:51;;;;;;;;;;;;;;;;;;5054537;28;5840;-63
2023/12/10 12:25:16;;;;;;;;;;;;;;;;;;5052639;28;4550;-63
2023/12/10 12:27:43;;;;;;;;;;;;;;;;;;5050936;28;3450;-64
2023/12/10 12:30:08;;;;;;;;;;;;;;;;;;5055629;28;5156;-61
2023/12/10 12:32:33;;;;;;;;;;;;;;;;;;5061581;28;4997;-62
2023/12/10 12:34:59;;;;;;;;;;;;;;;;;;5051863;28;5011;-57
2023/12/10 12:37:24;;;;;;;;;;;;;;;;;;5059035;28;5030;-60
2023/12/10 12:39:51;;;;;;;;;;;;;;;;;;5062352;28;3347;-61
2023/12/10 12:42:16;;;;;;;;;;;;;;;;;;5052955;28;5072;-61
2023/12/10 12:44:42;;;;;;;;;;;;;;;;;;5053425;28;5145;-61
2023/12/10 12:47:07;;;;;;;;;;;;;;;;;;5089854;28;5085;-61
2023/12/10 12:49:32;;;;;;;;;;;;;;;;;;5058686;28;4536;-63
2023/12/10 12:51:58;;;;;;;;;;;;;;;;;;5054542;28;4925;-61
2023/12/10 12:54:23;;;;;;;;;;;;;;;;;;5057301;28;4829;-61
2023/12/10 12:56:48;;;;;;;;;;;;;;;;;;5053183;28;5052;-60
2023/12/10 12:59:14;;;;;;;;;;;;;;;;;;5052168;28;4699;-56
2023/12/10 13:01:39;;;;;;;;;;;;;;;;;;5047703;28;5011;-57
2023/12/10 13:04:05;;;;;;;;;;;;;;;;;;5049526;28;3526;-58
2023/12/10 13:06:30;;;;;;;;;;;;;;;;;;5061450;28;4577;-58
2023/12/10 13:08:55;;;;;;;;;;;;;;;;;;5058167;28;6893;-59
2023/12/10 13:11:21;;;;;;;;;;;;;;;;;;5054352;28;5311;-58
2023/12/10 13:13:46;;;;;;;;;;;;;;;;;;5051248;28;5030;-59
2023/12/10 13:16:11;;;;;;;;;;;;;;;;;;5061142;28;2216;-59
2023/12/10 13:18:37;;;;;;;;;;;;;;;;;;5059029;28;4834;-59
2023/12/10 13:21:02;;;;;;;;;;;;;;;;;;5066597;28;4590;-59
2023/12/10 13:23:27;;;;;;;;;;;;;;;;;;5066011;28;4493;-60
2023/12/10 13:25:53;;;;;;;;;;;;;;;;;;5067534;28;4860;-58
2023/12/10 13:28:18;;;;;;;;;;;;;;;;;;5063199;28;4465;-59
2023/12/10 13:30:44;;;;;;;;;;;;;;;;;;5067956;28;1127;-59
2023/12/10 13:33:09;;;;;;;;;;;;;;;;;;5061190;28;4966;-59
2023/12/10 13:35:34;;;;;;;;;;;;;;;;;;5065958;28;5283;-58
2023/12/10 13:38:00;;;;;;;;;;;;;;;;;;5069560;28;4598;-59
2023/12/10 13:40:25;;;;;;;;;;;;;;;;;;5060745;28;5061;-59
2023/12/10 13:42:50;;;;;;;;;;;;;;;;;;5064538;28;1128;-59
2023/12/10 13:45:16;;;;;;;;;;;;;;;;;;5065155;28;4895;-59
2023/12/10 13:47:41;;;;;;;;;;;;;;;;;;5068528;28;5071;-59
2023/12/10 13:50:06;;;;;;;;;;;;;;;;;;5065553;28;4559;-60
2023/12/10 13:52:32;;;;;;;;;;;;;;;;;;5068144;28;5195;-59
2023/12/10 13:54:57;;;;;;;;;;;;;;;;;;5061511;28;1385;-58
2023/12/10 13:57:22;;;;;;;;;;;;;;;;;;5069590;28;4666;-58
2023/12/10 13:59:48;;;;;;;;;;;;;;;;;;5069488;28;4683;-58
2023/12/10 14:02:13;;;;;;;;;;;;;;;;;;5063040;28;5190;-58
2023/12/10 14:04:39;;;;;;;;;;;;;;;;;;5067533;28;5098;-58
2023/12/10 14:07:04;;;;;;;;;;;;;;;;;;5070084;28;1252;-58
2023/12/10 14:09:29;;;;;;;;;;;;;;;;;;5062224;28;5202;-59
2023/12/10 14:11:56;;;;;;;;;;;;;;;;;;5067977;28;5051;-59
2023/12/10 14:14:21;;;;;;;;;;;;;;;;;;5059126;28;4542;-58
2023/12/10 14:16:46;;;;;;;;;;;;;;;;;;5070732;28;5011;-59
2023/12/10 14:19:11;;;;;;;;;;;;;;;;;;5060646;28;3390;-58
2023/12/10 14:21:37;;;;;;;;;;;;;;;;;;5068353;28;4636;-59
2023/12/10 14:24:02;;;;;;;;;;;;;;;;;;5055339;28;6092;-58
2023/12/10 14:26:27;;;;;;;;;;;;;;;;;;5068485;28;4893;-58
2023/12/10 14:28:53;;;;;;;;;;;;;;;;;;5068164;28;4714;-59
2023/12/10 14:31:18;;;;;;;;;;;;;;;;;;5082786;28;5228;-59
2023/12/10 14:33:44;;;;;;;;;;;;;;;;;;5064833;28;3349;-59
2023/12/10 14:36:09;;;;;;;;;;;;;;;;;;5062012;28;4997;-58
2023/12/10 14:38:34;;;;;;;;;;;;;;;;;;5063088;28;4469;-58
2023/12/10 14:41:00;;;;;;;;;;;;;;;;;;5066370;28;5078;-59
2023/12/10 14:43:25;;;;;;;;;;;;;;;;;;5061298;28;5036;-58
2023/12/10 14:45:50;;;;;;;;;;;;;;;;;;5040054;28;3235;-58
2023/12/10 14:48:16;;;;;;;;;;;;;;;;;;5048331;28;5030;-58
2023/12/10 14:50:41;;;;;;;;;;;;;;;;;;5063339;28;5001;-58
2023/12/10 14:53:06;;;;;;;;;;;;;;;;;;5060985;28;5126;-59
2023/12/10 14:55:31;;;;;;;;;;;;;;;;;;5068906;28;5045;-59
2023/12/10 14:57:57;;;;;;;;;;;;;;;;;;5051000;28;1925;-59
2023/12/10 15:00:22;;;;;;;;;;;;;;;;;;5068621;28;5026;-58
2023/12/10 15:02:47;;;;;;;;;;;;;;;;;;5082488;28;5072;-59
2023/12/10 15:05:13;;;;;;;;;;;;;;;;;;5056187;28;5112;-59
2023/12/10 15:07:42;;;;;;;;;;;;;;;;;;5063457;28;5179;-59
2023/12/10 15:10:10;;;;;;;;;;;;;;;;;;5065154;28;3314;-60
2023/12/10 15:12:36;;;;;;;;;;;;;;;;;;5060023;28;5030;-59
2023/12/10 15:15:01;;;;;;;;;;;;;;;;;;5065358;28;4500;-59
2023/12/10 15:17:26;;;;;;;;;;;;;;;;;;5061774;28;5048;-59
2023/12/10 15:19:51;;;;;;;;;;;;;;;;;;5054531;28;4543;-59
2023/12/10 15:22:17;;;;;;;;;;;;;;;;;;5064890;28;5244;-60
2023/12/10 15:24:42;;;;;;;;;;;;;;;;;;5067139;28;1144;-59
2023/12/10 15:27:07;;;;;;;;;;;;;;;;;;5067761;28;4893;-59
2023/12/10 15:29:33;;;;;;;;;;;;;;;;;;5056708;28;5023;-59
2023/12/10 15:31:58;;;;;;;;;;;;;;;;;;5057486;28;5056;-59
2023/12/10 15:34:28;;;;;;;;;;;;;;;;;;5054002;28;5307;-59
2023/12/10 15:36:54;;;;;;;;;;;;;;;;;;5060548;28;2346;-58
2023/12/10 15:39:19;;;;;;;;;;;;;;;;;;5067817;28;5188;-59
2023/12/10 15:41:45;;;;;;;;;;;;;;;;;;5068418;28;5122;-58
2023/12/10 15:44:10;;;;;;;;;;;;;;;;;;5064120;28;4675;-59
2023/12/10 15:46:35;;;;;;;;;;;;;;;;;;5057142;28;5094;-59
2023/12/10 15:49:00;;;;;;;;;;;;;;;;;;5055719;28;3546;-59
2023/12/10 15:51:26;;;;;;;;;;;;;;;;;;5068110;28;5053;-58
2023/12/10 15:53:51;;;;;;;;;;;;;;;;;;5066541;28;4699;-59
2023/12/10 15:56:17;;;;;;;;;;;;;;;;;;5049259;28;4688;-59
2023/12/10 15:58:43;;;;;;;;;;;;;;;;;;5065197;28;4682;-59
2023/12/10 16:01:08;;;;;;;;;;;;;;;;;;5063656;28;3218;-59
2023/12/10 16:03:34;;;;;;;;;;;;;;;;;;5067369;28;4920;-59
2023/12/10 16:05:59;;;;;;;;;;;;;;;;;;5069061;28;5010;-59
2023/12/10 16:08:24;;;;;;;;;;;;;;;;;;5068383;28;5210;-58
2023/12/10 16:10:50;;;;;;;;;;;;;;;;;;5066352;28;5126;-59
2023/12/10 16:13:15;;;;;;;;;;;;;;;;;;5065062;28;5097;-58
2023/12/10 16:15:40;;;;;;;;;;;;;;;;;;5059800;28;3379;-58
2023/12/10 16:18:06;;;;;;;;;;;;;;;;;;5059614;28;5029;-58
2023/12/10 16:20:31;;;;;;;;;;;;;;;;;;5067038;28;5107;-59
2023/12/10 16:22:57;;;;;;;;;;;;;;;;;;5080364;28;4516;-59
2023/12/10 16:25:23;;;;;;;;;;;;;;;;;;5064032;28;4555;-59
2023/12/10 16:27:48;;;;;;;;;;;;;;;;;;5061694;28;1507;-58
2023/12/10 16:30:14;;;;;;;;;;;;;;;;;;5053766;28;4976;-58
2023/12/10 16:32:39;;;;;;;;;;;;;;;;;;5063539;28;5023;-59
2023/12/10 16:35:06;;;;;;;;;;;;;;;;;;5054739;28;5119;-60
2023/12/10 16:37:31;;;;;;;;;;;;;;;;;;5066838;28;5118;-59
2023/12/10 16:39:58;;;;;;;;;;;;;;;;;;5067660;28;1913;-58
2023/12/10 16:42:23;;;;;;;;;;;;;;;;;;5066454;28;5013;-58
2023/12/10 16:44:48;;;;;;;;;;;;;;;;;;5055042;28;4903;-58
2023/12/10 16:47:14;;;;;;;;;;;;;;;;;;5051621;28;5139;-58
2023/12/10 16:49:39;;;;;;;;;;;;;;;;;;5046946;28;4679;-58
2023/12/10 16:52:05;;;;;;;;;;;;;;;;;;5066940;28;5057;-59